createdAt,value
2019-01-06T00:05:30.068Z,4.80
2019-01-06T00:13:28.286Z,4.77
2019-01-06T00:21:23.613Z,4.37
2019-01-06T00:28:27.697Z,5.00
2019-01-06T00:37:28.689Z,4.90
2019-01-06T00:44:25.613Z,4.17
2019-01-06T00:51:39.697Z,7.53
2019-01-06T00:58:34.801Z,5.83
2019-01-06T01:06:32.781Z,5.47
2019-01-06T01:13:35.829Z,5.03
2019-01-06T01:20:29.913Z,5.40
2019-01-06T01:27:54.997Z,4.77
2019-01-06T01:34:50.089Z,4.73
2019-01-06T01:41:45.106Z,4.30
2019-01-06T01:48:40.711Z,3.83
2019-01-06T01:55:36.310Z,3.90
2019-01-06T02:02:35.377Z,3.10
2019-01-06T02:09:30.628Z,3.10
2019-01-06T02:16:59.225Z,3.33
2019-01-06T02:23:57.994Z,3.63
2019-01-06T02:30:53.015Z,4.03
2019-01-06T02:37:49.978Z,3.80
2019-01-06T02:44:50.054Z,3.63
2019-01-06T02:51:46.902Z,3.67
2019-01-06T02:59:41.551Z,3.73
2019-01-06T03:06:40.253Z,4.30
2019-01-06T03:13:34.846Z,4.50
2019-01-06T03:21:36.659Z,3.90
2019-01-06T03:28:31.661Z,3.80
2019-01-06T03:35:26.906Z,4.07
2019-01-06T03:42:29.790Z,4.27
2019-01-06T03:49:29.694Z,3.60
2019-01-06T03:56:24.782Z,3.80
2019-01-06T04:03:19.487Z,3.40
2019-01-06T04:10:14.527Z,3.37
2019-01-06T04:17:09.253Z,2.70
2019-01-06T04:24:06.926Z,3.67
2019-01-06T04:31:01.982Z,3.27
2019-01-06T04:38:07.937Z,3.10
2019-01-06T04:45:03.162Z,3.20
2019-01-06T04:52:02.117Z,2.80
2019-01-06T04:58:57.029Z,3.37
2019-01-06T05:07:00.979Z,3.20
2019-01-06T05:13:59.718Z,3.30
2019-01-06T05:21:02.649Z,3.03
2019-01-06T05:28:56.519Z,3.27
2019-01-06T05:36:05.649Z,3.13
2019-01-06T05:43:59.658Z,2.93
2019-01-06T05:51:52.621Z,2.90
2019-01-06T05:58:56.583Z,3.00
2019-01-06T06:05:54.485Z,3.10
2019-01-06T06:12:51.343Z,3.07
2019-01-06T06:21:51.246Z,3.20
2019-01-06T06:28:47.184Z,3.60
2019-01-06T06:36:00.342Z,3.50
2019-01-06T06:43:47.533Z,3.43
2019-01-06T06:50:38.760Z,3.63
2019-01-06T06:57:39.041Z,4.50
2019-01-06T07:04:28.355Z,3.93
2019-01-06T07:11:17.633Z,3.90
2019-01-06T07:18:06.893Z,4.50
2019-01-06T07:24:56.974Z,4.20
2019-01-06T07:31:47.176Z,4.70
2019-01-06T07:38:38.293Z,4.90
2019-01-06T07:45:37.921Z,5.03
2019-01-06T07:54:35.046Z,4.33
2019-01-06T08:01:33.204Z,4.47
2019-01-06T08:08:22.649Z,5.30
2019-01-06T08:15:15.922Z,4.47
2019-01-06T08:22:15.158Z,4.53
2019-01-06T08:30:07.326Z,4.13
2019-01-06T08:36:56.825Z,4.20
2019-01-06T08:43:46.093Z,4.63
2019-01-06T08:50:35.333Z,4.37
2019-01-06T08:57:29.538Z,4.47
2019-01-06T09:04:20.590Z,4.73
2019-01-06T09:11:12.794Z,4.20
2019-01-06T09:18:18.030Z,4.43
2019-01-06T09:25:07.233Z,4.07
2019-01-06T09:32:02.244Z,3.17
2019-01-06T09:40:50.714Z,3.07
2019-01-06T09:47:40.053Z,3.47
2019-01-06T09:54:32.149Z,3.90
2019-01-06T10:02:18.222Z,2.90
2019-01-06T10:09:12.350Z,3.57
2019-01-06T10:16:13.410Z,3.50
2019-01-06T10:23:19.618Z,3.90
2019-01-06T10:30:08.990Z,4.10
2019-01-06T10:36:58.041Z,3.80
2019-01-06T10:43:47.505Z,4.53
2019-01-06T10:50:40.681Z,3.93
2019-01-06T10:57:34.786Z,4.30
2019-01-06T11:06:25.033Z,4.27
2019-01-06T11:14:18.312Z,4.50
2019-01-06T11:21:11.517Z,4.33
2019-01-06T11:28:58.638Z,3.83
2019-01-06T11:37:52.769Z,3.63
2019-01-06T11:44:44.674Z,4.10
2019-01-06T11:53:34.931Z,4.67
2019-01-06T12:00:54.057Z,4.77
2019-01-06T12:09:50.289Z,4.70
2019-01-06T12:26:52.002Z,3.73
2019-01-06T12:33:42.201Z,3.97
2019-01-06T12:42:36.805Z,4.00
2019-01-06T12:49:26.140Z,3.63
2019-01-06T12:56:14.297Z,3.33
2019-01-06T13:05:08.553Z,2.73
2019-01-06T13:11:57.693Z,2.53
2019-01-06T13:19:53.061Z,3.27
2019-01-06T13:26:42.129Z,2.80
2019-01-06T13:34:34.265Z,3.30
2019-01-06T13:41:38.761Z,4.13
2019-01-06T13:48:46.069Z,2.83
2019-01-06T13:55:41.106Z,3.70
2019-01-06T14:04:32.518Z,4.07
2019-01-06T14:13:28.754Z,4.40
2019-01-06T14:20:18.098Z,3.67
2019-01-06T14:29:12.513Z,3.23
2019-01-06T14:36:03.709Z,2.93
2019-01-06T14:43:18.321Z,3.13
2019-01-06T14:52:11.382Z,2.97
2019-01-06T15:01:06.590Z,2.70
2019-01-06T15:07:55.898Z,3.50
2019-01-06T15:14:45.226Z,3.20
2019-01-06T15:21:44.355Z,3.07
2019-01-06T15:28:39.381Z,3.33
2019-01-06T15:35:34.426Z,3.40
2019-01-06T15:44:26.690Z,3.50
2019-01-06T15:51:14.853Z,3.00
2019-01-06T15:58:04.209Z,3.13
2019-01-06T16:05:51.327Z,3.00
2019-01-06T16:12:40.537Z,3.47
2019-01-06T16:19:29.886Z,3.57
2019-01-06T16:27:17.705Z,3.53
2019-01-06T16:34:07.798Z,4.27
2019-01-06T16:41:08.111Z,3.80
2019-01-06T16:47:57.278Z,3.80
2019-01-06T16:55:19.970Z,3.27
2019-01-06T17:02:24.309Z,2.80
2019-01-06T17:09:13.581Z,3.47
2019-01-06T17:17:05.790Z,3.53
2019-01-06T17:26:02.974Z,3.80
2019-01-06T17:32:52.125Z,3.17
2019-01-06T17:39:40.277Z,3.83
2019-01-06T17:48:33.341Z,4.37
2019-01-06T18:02:29.042Z,5.50
2019-01-06T18:09:38.152Z,5.87
2019-01-06T18:16:27.557Z,5.73
2019-01-06T18:23:17.361Z,5.60
2019-01-06T18:30:10.906Z,5.90
2019-01-06T18:37:30.929Z,5.60
2019-01-06T18:45:19.071Z,6.20
2019-01-06T18:53:08.505Z,6.40
2019-01-06T19:00:00.911Z,5.93
2019-01-06T19:06:56.074Z,5.00
2019-01-06T19:13:45.281Z,5.27
2019-01-06T19:20:35.001Z,10.50
2019-01-06T19:27:42.632Z,6.30
2019-01-06T19:34:31.961Z,7.03
2019-01-06T19:41:20.148Z,6.63
2019-01-06T19:48:17.610Z,6.53
2019-01-06T19:55:09.283Z,6.07
2019-01-06T20:02:56.399Z,5.67
2019-01-06T20:09:44.548Z,5.50
2019-01-06T20:16:33.949Z,5.77
2019-01-06T20:23:26.025Z,5.60
2019-01-06T20:30:15.391Z,4.60
2019-01-06T20:37:04.728Z,5.50
2019-01-06T20:44:04.028Z,5.50
2019-01-06T20:51:53.057Z,5.20
2019-01-06T20:58:41.233Z,5.50
2019-01-06T21:05:31.306Z,9.13
2019-01-06T21:12:20.575Z,5.57
2019-01-06T21:19:18.765Z,5.50
2019-01-06T21:26:08.042Z,5.77
2019-01-06T21:32:57.433Z,5.57
2019-01-06T21:41:50.431Z,6.23
2019-01-06T21:48:40.405Z,5.30
2019-01-06T21:55:29.689Z,5.33
2019-01-06T22:02:20.762Z,4.10
2019-01-06T22:09:12.046Z,3.50
2019-01-06T22:16:01.246Z,3.27
2019-01-06T22:22:50.641Z,3.60
2019-01-06T22:29:40.038Z,3.13
2019-01-06T22:37:28.433Z,3.40
2019-01-06T22:44:17.661Z,4.17
2019-01-06T22:51:05.813Z,3.83
2019-01-06T23:00:03.115Z,4.23
2019-01-06T23:08:56.118Z,4.37
2019-01-06T23:16:19.795Z,4.73
2019-01-06T23:23:12.623Z,4.23
2019-01-06T23:30:19.831Z,5.20
2019-01-06T23:37:09.353Z,5.00
2019-01-06T23:43:58.626Z,4.73
2019-01-06T23:50:46.877Z,4.23
2019-01-06T23:57:35.038Z,2.97
